Skip Navigation LinksHome page > Weather > Current weather Skip Navigation Links

Current Weather

Chicago Midway, Chicago

For information only: do not use for flight planning or navigation.
Latest weather
Observation time Friday, February 21, 2020 2:53 AM CST
Local time Friday, February 21, 2020 3:33 AM CST
Flight conditions Visual Meteorological Conditions
Winds
Wind direction West-Southwest (250°)
Wind speed 7 mph
Visibility 10 mi.
Sky condition
Ceiling unlimited
Sky clear
Temperature 13°F
Dewpoint 2°F
Altimeter 30.63 in.Hg
Pressure change last 3 hours0.04 in.Hg
Pressure falling more slowly
Derived measurements
Relative humidity 61%
Wind chill 3°F
Density altitude -3374 ft.
Sea-level pressure 30.68 in.Hg
Remarks
Automated weather observing station with precipitation discriminator.
METAR KMDW 210853Z 25006KT 10SM CLR M11/M17 A3063 RMK AO2 SLP391 T11061167 56012

Settings

Location code

InnerDrive.Weather 4.0.6770.0 Release CLR 4.0.30319.42000
Copyright ©2018 Inner Drive Technology. All rights reserved. Portions Copyright ©1986-2018 David Braverman.

Find weather

Site navigation


Skip Navigation Links

Place info

Page info

PayPal - The safer, easier way to pay online!

Return home.

Copyright ©2020 Inner Drive Technology. Purveyors of fine, hand-crafted computer software. Page printed 2020-02-21T09:33:05 UTC.